Prince Joy — V3TY7 — position and weather

sailwx.info

Track history (hours):
 
Tides and Currents Weather Stations Pressure Air Temp Water Temp Dewpoint Dewpoint Depression Visibility Wind Speed Wind Dir Waves Ship Positions

Prince Joy

Last reported at 2017-Nov-16 12:53 UTC. Time now 2017-Nov-19 12:38 UTC.
Position N 36°55' E 013°30'.

Length 101 m; draft 6.9 m.

Type: Cargo ship. MMSI: 312341000.

Date/timePositionNaut miles runAvg speedWind from/ knotsBaromVisibWave heightAir tempDewpointWater temp
2017-Nov-16 12:53N 36°55' E 013°30'4 9.6
2017-Nov-16 12:30N 36°54' E 013°34'5 9.7
2017-Nov-16 12:00N 36°53' E 013°40'5 9.9
2017-Nov-16 11:30N 36°52' E 013°46'5 9.9
2017-Nov-16 11:00N 36°50' E 013°52'5 9.8
2017-Nov-16 10:30N 36°49' E 013°58'5 9.7
2017-Nov-16 10:00N 36°48' E 014°03'5 9.8
2017-Nov-16 09:30N 36°46' E 014°09'5 9.7
2017-Nov-16 09:00N 36°45' E 014°15'5 9.8
2017-Nov-16 08:30N 36°43' E 014°21'5 9.9
2017-Nov-16 08:00N 36°42' E 014°27'5 9.9
2017-Nov-16 07:30N 36°41' E 014°33'510.3
2017-Nov-16 07:00N 36°39' E 014°39'458 9.7
2017-Nov-14 07:34N 37°34' E 024°09'211.2
2017-Nov-14 07:23N 37°35' E 024°11'911.4
2017-Nov-14 06:33N 37°43' E 024°18'111.4
2017-Nov-14 06:30N 37°43' E 024°19'36 9.6
2017-Nov-14 02:47N 38°18' E 024°31'  
Track history (hours):
 
Tides and Currents Weather Stations Pressure Air Temp Water Temp Dewpoint Dewpoint Depression Visibility Wind Speed Wind Dir Waves Ship Positions

Prince Joy

Last reported at 2017-Nov-16 12:53 UTC. Time now 2017-Nov-19 12:38 UTC.
Position N 36°55' E 013°30'.

Length 101 m; draft 6.9 m.

Type: Cargo ship. MMSI: 312341000.

Date/timePositionNaut miles runAvg speedWind from/ knotsBaromVisibWave heightAir tempDewpointWater temp
2017-Nov-16 12:53N 36°55' E 013°30'4 9.6
2017-Nov-16 12:30N 36°54' E 013°34'5 9.7
2017-Nov-16 12:00N 36°53' E 013°40'5 9.9
2017-Nov-16 11:30N 36°52' E 013°46'5 9.9
2017-Nov-16 11:00N 36°50' E 013°52'5 9.8
2017-Nov-16 10:30N 36°49' E 013°58'5 9.7
2017-Nov-16 10:00N 36°48' E 014°03'5 9.8
2017-Nov-16 09:30N 36°46' E 014°09'5 9.7
2017-Nov-16 09:00N 36°45' E 014°15'5 9.8
2017-Nov-16 08:30N 36°43' E 014°21'5 9.9
2017-Nov-16 08:00N 36°42' E 014°27'5 9.9
2017-Nov-16 07:30N 36°41' E 014°33'510.3
2017-Nov-16 07:00N 36°39' E 014°39'458 9.7
2017-Nov-14 07:34N 37°34' E 024°09'211.2
2017-Nov-14 07:23N 37°35' E 024°11'911.4
2017-Nov-14 06:33N 37°43' E 024°18'111.4
2017-Nov-14 06:30N 37°43' E 024°19'36 9.6
2017-Nov-14 02:47N 38°18' E 024°31'  

Dump ship's entire track history